createdAt,value
2023-05-19T00:01:21.285Z,70.75
2023-05-19T00:03:54.657Z,71.22
2023-05-19T00:06:33.283Z,71.20
2023-05-19T00:09:09.927Z,71.43
2023-05-19T00:11:39.968Z,71.41
2023-05-19T00:14:09.744Z,71.69
2023-05-19T00:16:40.601Z,71.70
2023-05-19T00:19:10.662Z,71.00
2023-05-19T00:21:38.987Z,71.25
2023-05-19T00:24:07.072Z,71.74
2023-05-19T00:26:34.271Z,71.16
2023-05-19T00:29:01.170Z,70.85
2023-05-19T00:31:28.265Z,71.23
2023-05-19T00:33:55.301Z,71.23
2023-05-19T00:36:22.208Z,70.81
2023-05-19T00:38:49.108Z,70.88
2023-05-19T00:41:16.034Z,71.16
2023-05-19T00:43:42.898Z,71.88
2023-05-19T00:46:11.245Z,71.19
2023-05-19T00:48:38.260Z,71.34
2023-05-19T00:51:06.749Z,71.62
2023-05-19T00:53:35.262Z,72.33
2023-05-19T00:56:03.526Z,72.31
2023-05-19T00:58:32.814Z,72.39
2023-05-19T01:01:05.365Z,73.32
2023-05-19T01:03:37.170Z,73.48
2023-05-19T01:06:08.197Z,73.67
2023-05-19T01:08:38.077Z,74.34
2023-05-19T01:11:08.802Z,73.41
2023-05-19T01:13:36.776Z,73.51
2023-05-19T01:16:24.322Z,73.80
2023-05-19T01:19:15.614Z,73.40
2023-05-19T01:22:13.357Z,73.41
2023-05-19T01:25:45.868Z,74.74
2023-05-19T01:28:24.744Z,73.96
2023-05-19T01:30:57.295Z,74.12
2023-05-19T01:33:25.287Z,74.75
2023-05-19T01:35:55.149Z,75.20
2023-05-19T01:38:23.676Z,75.17
2023-05-19T01:40:52.496Z,75.19
2023-05-19T01:43:23.424Z,74.43
2023-05-19T01:45:51.714Z,74.92
2023-05-19T01:48:19.500Z,74.49
2023-05-19T01:50:46.606Z,74.87
2023-05-19T01:53:13.771Z,75.42
2023-05-19T01:55:52.420Z,74.78
2023-05-19T01:58:49.005Z,75.56
2023-05-19T02:01:47.359Z,76.10
2023-05-19T02:04:44.256Z,77.00
2023-05-19T02:07:37.223Z,76.36
2023-05-19T02:10:15.366Z,76.95
2023-05-19T02:12:43.134Z,76.90
2023-05-19T02:15:17.692Z,77.62
2023-05-19T02:17:51.979Z,77.15
2023-05-19T02:20:19.399Z,76.90
2023-05-19T02:22:46.400Z,77.81
2023-05-19T02:25:13.263Z,78.25
2023-05-19T02:27:41.162Z,77.95
2023-05-19T02:30:09.932Z,78.50
2023-05-19T02:32:36.916Z,78.48
2023-05-19T02:35:04.489Z,78.38
2023-05-19T02:37:32.714Z,79.13
2023-05-19T02:39:59.745Z,79.64
2023-05-19T02:42:26.624Z,79.19
2023-05-19T02:44:55.162Z,80.43
2023-05-19T02:47:22.110Z,79.59
2023-05-19T02:49:49.001Z,80.04
2023-05-19T02:52:15.973Z,79.70
2023-05-19T02:54:42.975Z,81.40
2023-05-19T02:57:11.350Z,81.19
2023-05-19T02:59:38.297Z,81.62
2023-05-19T03:02:05.413Z,80.93
2023-05-19T03:04:32.306Z,80.95
2023-05-19T03:06:59.162Z,81.28
2023-05-19T03:09:26.044Z,81.69
2023-05-19T03:11:52.885Z,81.37
2023-05-19T03:14:24.268Z,81.40
2023-05-19T03:16:51.542Z,81.48
2023-05-19T03:19:18.655Z,82.33
2023-05-19T03:21:45.551Z,81.80
2023-05-19T03:24:12.414Z,82.16
2023-05-19T03:26:39.414Z,81.65
2023-05-19T03:29:06.251Z,80.98
2023-05-19T03:31:33.133Z,81.14
2023-05-19T03:34:00.130Z,80.91
2023-05-19T03:36:32.225Z,81.49
2023-05-19T03:38:59.622Z,81.66
2023-05-19T03:41:26.538Z,81.22
2023-05-19T03:43:53.385Z,81.06
2023-05-19T03:46:20.389Z,80.89
2023-05-19T03:48:47.367Z,81.36
2023-05-19T03:51:14.262Z,81.36
2023-05-19T03:53:41.525Z,82.33
2023-05-19T03:56:11.828Z,82.45
2023-05-19T03:58:41.009Z,83.18
2023-05-19T04:01:07.911Z,82.95
2023-05-19T04:03:34.816Z,82.60
2023-05-19T04:06:01.777Z,83.21
2023-05-19T04:08:28.636Z,84.27
2023-05-19T04:10:55.609Z,83.54
2023-05-19T04:13:22.463Z,84.21
2023-05-19T04:15:49.486Z,84.71
2023-05-19T04:18:16.398Z,84.82
2023-05-19T04:20:43.233Z,84.27
2023-05-19T04:23:10.691Z,84.38
2023-05-19T04:25:37.761Z,84.12
2023-05-19T04:28:04.723Z,84.83
2023-05-19T04:30:31.788Z,84.73
2023-05-19T04:33:01.272Z,85.27
2023-05-19T04:35:28.266Z,83.99
2023-05-19T04:37:55.829Z,82.93
2023-05-19T04:40:24.028Z,83.05
2023-05-19T04:42:52.526Z,83.13
2023-05-19T04:45:19.556Z,83.15
2023-05-19T04:47:49.241Z,82.62
2023-05-19T04:50:17.156Z,82.78
2023-05-19T04:52:45.828Z,82.98
2023-05-19T04:55:13.513Z,82.24
2023-05-19T04:57:40.503Z,83.04
2023-05-19T05:00:12.998Z,83.23
2023-05-19T05:02:39.905Z,83.04
2023-05-19T05:05:08.102Z,83.04
2023-05-19T05:07:34.987Z,82.43
2023-05-19T05:10:01.868Z,81.90
2023-05-19T05:12:29.005Z,82.16
2023-05-19T05:14:56.231Z,81.51
2023-05-19T05:17:23.514Z,81.80
2023-05-19T05:19:50.882Z,82.41
2023-05-19T05:22:18.573Z,81.58
2023-05-19T05:24:46.282Z,81.70
2023-05-19T05:27:13.849Z,81.41
2023-05-19T05:29:40.832Z,80.75
2023-05-19T05:32:08.273Z,80.50
2023-05-19T05:34:36.187Z,80.34
2023-05-19T05:37:03.094Z,80.05
2023-05-19T05:39:30.260Z,80.66
2023-05-19T05:41:57.130Z,80.24
2023-05-19T05:44:23.986Z,78.74
2023-05-19T05:46:51.367Z,78.66
2023-05-19T05:49:18.668Z,78.14
2023-05-19T05:52:01.481Z,76.85
2023-05-19T05:54:32.554Z,76.49
2023-05-19T05:57:00.006Z,76.72
2023-05-19T05:59:27.690Z,75.72
2023-05-19T06:01:54.619Z,76.51
2023-05-19T06:04:21.487Z,75.39
2023-05-19T06:06:48.359Z,74.36
2023-05-19T06:09:15.273Z,74.47
2023-05-19T06:11:42.129Z,75.33
2023-05-19T06:14:09.025Z,75.69
2023-05-19T06:16:35.965Z,75.56
2023-05-19T06:19:02.911Z,75.50
2023-05-19T06:21:29.787Z,74.20
2023-05-19T06:23:56.706Z,75.27
2023-05-19T06:26:23.553Z,73.61
2023-05-19T06:28:50.411Z,74.06
2023-05-19T06:31:17.746Z,73.82
2023-05-19T06:33:44.666Z,73.25
2023-05-19T06:36:12.153Z,73.31
2023-05-19T06:38:39.013Z,72.06
2023-05-19T06:41:05.873Z,72.26
2023-05-19T06:43:32.936Z,73.22
2023-05-19T06:45:59.845Z,73.57
2023-05-19T06:48:26.721Z,72.72
2023-05-19T06:50:53.590Z,73.52
2023-05-19T06:53:21.558Z,74.18
2023-05-19T06:55:59.319Z,73.65
2023-05-19T06:58:27.351Z,73.55
2023-05-19T07:00:54.211Z,73.95
2023-05-19T07:03:21.150Z,72.61
2023-05-19T07:05:48.209Z,72.93
2023-05-19T07:08:15.164Z,73.38
2023-05-19T07:10:42.005Z,72.81
2023-05-19T07:13:08.957Z,72.76
2023-05-19T07:15:35.841Z,72.03
2023-05-19T07:18:02.772Z,73.29
2023-05-19T07:20:29.786Z,72.42
2023-05-19T07:22:56.667Z,70.86
2023-05-19T07:25:23.949Z,70.16
2023-05-19T07:27:50.972Z,70.42
2023-05-19T07:30:17.834Z,69.52
2023-05-19T07:32:44.760Z,69.08
2023-05-19T07:35:11.842Z,69.19
2023-05-19T07:37:38.732Z,69.44
2023-05-19T07:40:09.608Z,69.81
2023-05-19T07:42:36.465Z,69.29
2023-05-19T07:45:03.767Z,67.64
2023-05-19T07:47:31.409Z,68.26
2023-05-19T07:49:58.318Z,69.10
2023-05-19T07:52:25.219Z,68.15
2023-05-19T07:54:52.082Z,68.07
2023-05-19T07:57:19.329Z,68.37
2023-05-19T07:59:46.186Z,67.71
2023-05-19T08:02:13.164Z,68.34
2023-05-19T08:04:40.110Z,67.93
2023-05-19T08:07:07.039Z,67.88
2023-05-19T08:09:33.901Z,68.75
2023-05-19T08:12:01.870Z,67.49
2023-05-19T08:14:28.787Z,67.72
2023-05-19T08:16:55.704Z,66.97
2023-05-19T08:19:22.928Z,67.08
2023-05-19T08:21:49.882Z,67.49
2023-05-19T08:24:16.816Z,67.87
2023-05-19T08:26:44.804Z,67.45
2023-05-19T08:29:11.690Z,67.54
2023-05-19T08:31:38.565Z,67.87
2023-05-19T08:34:05.470Z,66.89
2023-05-19T08:36:33.995Z,66.28
2023-05-19T08:39:01.064Z,66.13
2023-05-19T08:41:27.942Z,66.10
2023-05-19T08:43:55.408Z,65.78
2023-05-19T08:46:25.372Z,65.46
2023-05-19T08:48:59.398Z,64.49
2023-05-19T08:52:14.093Z,65.39
2023-05-19T08:54:51.119Z,64.44
2023-05-19T08:57:19.202Z,64.57
2023-05-19T08:59:46.428Z,64.91
2023-05-19T09:02:14.621Z,63.85
2023-05-19T09:04:46.096Z,63.40
2023-05-19T09:07:15.615Z,63.50
2023-05-19T09:09:44.217Z,64.07
2023-05-19T09:12:11.855Z,63.17
2023-05-19T09:14:39.160Z,62.45
2023-05-19T09:17:06.807Z,63.31
2023-05-19T09:19:33.821Z,63.39
2023-05-19T09:22:03.972Z,61.38
2023-05-19T09:24:31.187Z,60.91
2023-05-19T09:27:00.085Z,60.80
2023-05-19T09:29:28.434Z,61.39
2023-05-19T09:32:01.151Z,59.75
2023-05-19T09:34:28.208Z,59.92
2023-05-19T09:36:55.134Z,60.05
2023-05-19T09:39:26.120Z,60.41
2023-05-19T09:41:54.907Z,59.44
2023-05-19T09:44:29.952Z,59.60
2023-05-19T09:46:58.610Z,59.50
2023-05-19T09:49:31.516Z,59.81
2023-05-19T09:52:00.369Z,60.16
2023-05-19T09:54:32.541Z,60.71
2023-05-19T09:57:02.621Z,60.64
2023-05-19T09:59:32.266Z,62.18
2023-05-19T10:02:01.617Z,60.73
2023-05-19T10:04:30.403Z,60.13
2023-05-19T10:07:05.691Z,59.91
2023-05-19T10:09:34.472Z,57.86
2023-05-19T10:12:02.744Z,56.67
2023-05-19T10:14:30.508Z,57.46
2023-05-19T10:16:59.729Z,58.14
2023-05-19T10:19:29.816Z,58.57
2023-05-19T10:21:57.124Z,57.64
2023-05-19T10:24:24.116Z,57.44
2023-05-19T10:27:03.727Z,59.01
2023-05-19T10:29:35.093Z,59.44
2023-05-19T10:32:09.745Z,58.83
2023-05-19T10:35:10.742Z,59.29
2023-05-19T10:38:11.390Z,58.95
2023-05-19T10:41:21.790Z,59.73
2023-05-19T10:44:25.159Z,59.89
2023-05-19T10:46:54.177Z,60.10
2023-05-19T10:49:23.416Z,60.65
2023-05-19T10:51:52.726Z,60.34
2023-05-19T10:54:43.730Z,60.35
2023-05-19T10:57:16.712Z,60.57
2023-05-19T10:59:49.738Z,60.52
2023-05-19T11:02:42.001Z,60.10
2023-05-19T11:05:13.040Z,60.72
2023-05-19T11:07:43.695Z,60.90
2023-05-19T11:10:11.724Z,60.48
2023-05-19T11:12:45.268Z,60.28
2023-05-19T11:15:14.337Z,60.38
2023-05-19T11:17:43.071Z,61.40
2023-05-19T11:20:22.524Z,60.92
2023-05-19T11:23:09.313Z,61.06
2023-05-19T11:25:47.333Z,61.27
2023-05-19T11:28:26.002Z,61.54
2023-05-19T11:30:57.913Z,61.61
2023-05-19T11:33:29.313Z,62.40
2023-05-19T11:36:00.083Z,61.62
2023-05-19T11:38:28.721Z,61.91
2023-05-19T11:40:57.627Z,63.30
2023-05-19T11:43:26.141Z,63.77
2023-05-19T11:45:55.120Z,63.16
2023-05-19T11:48:22.840Z,63.46
2023-05-19T11:50:51.122Z,63.35
2023-05-19T11:53:20.038Z,63.50
2023-05-19T11:55:48.599Z,62.82
2023-05-19T11:58:17.055Z,63.06
2023-05-19T12:00:48.025Z,63.13
2023-05-19T12:03:15.304Z,62.96
2023-05-19T12:05:48.723Z,63.22
2023-05-19T12:08:18.861Z,62.81
2023-05-19T12:13:17.227Z,62.56
2023-05-19T12:15:44.480Z,62.92
2023-05-19T12:18:11.454Z,62.22
2023-05-19T12:20:38.523Z,61.44
2023-05-19T12:23:05.977Z,60.72
2023-05-19T12:25:33.128Z,61.31
2023-05-19T12:28:03.242Z,60.68
2023-05-19T12:30:32.276Z,61.63
2023-05-19T12:32:59.853Z,61.65
2023-05-19T12:35:34.656Z,62.18
2023-05-19T12:38:05.637Z,61.70
2023-05-19T12:40:37.917Z,62.69
2023-05-19T12:43:05.776Z,62.54
2023-05-19T12:45:42.740Z,62.45
2023-05-19T12:48:12.937Z,63.04
2023-05-19T12:50:39.937Z,63.87
2023-05-19T12:53:11.313Z,63.09
2023-05-19T12:55:45.219Z,63.23
2023-05-19T12:58:13.130Z,62.56
2023-05-19T13:00:45.724Z,62.46
2023-05-19T13:03:19.976Z,62.99
2023-05-19T13:05:49.847Z,63.01
2023-05-19T13:08:23.407Z,62.77
2023-05-19T13:10:50.379Z,62.65
2023-05-19T13:13:17.876Z,62.96
2023-05-19T13:15:46.590Z,62.91
2023-05-19T13:18:14.552Z,62.74
2023-05-19T13:20:44.607Z,62.30
2023-05-19T13:23:13.009Z,62.29
2023-05-19T13:25:41.435Z,61.38
2023-05-19T13:28:08.927Z,61.88
2023-05-19T13:30:38.767Z,61.63
2023-05-19T13:33:06.148Z,62.30
2023-05-19T13:35:37.573Z,61.14
2023-05-19T13:38:12.681Z,60.95
2023-05-19T13:40:40.538Z,60.58
2023-05-19T13:43:08.926Z,60.70
2023-05-19T13:45:35.971Z,61.01
2023-05-19T13:48:02.984Z,61.34
2023-05-19T13:50:29.929Z,61.66
2023-05-19T13:52:56.931Z,61.79
2023-05-19T13:55:23.973Z,61.56
2023-05-19T13:57:51.096Z,61.26
2023-05-19T14:00:19.160Z,61.53
2023-05-19T14:02:46.565Z,61.86
2023-05-19T14:05:13.639Z,60.87
2023-05-19T14:07:40.703Z,62.14
2023-05-19T14:10:08.410Z,61.42
2023-05-19T14:12:49.411Z,61.83
2023-05-19T14:15:23.058Z,61.35
2023-05-19T14:17:49.988Z,61.54
2023-05-19T14:20:16.969Z,62.54
2023-05-19T14:22:43.830Z,62.13
2023-05-19T14:25:10.799Z,61.64
2023-05-19T14:27:40.133Z,62.68
2023-05-19T14:30:08.624Z,61.26
2023-05-19T14:32:36.151Z,61.78
2023-05-19T14:35:03.220Z,62.02
2023-05-19T14:37:32.089Z,61.83
2023-05-19T14:39:59.803Z,61.80
2023-05-19T14:42:26.703Z,61.43
2023-05-19T14:44:53.609Z,61.52
2023-05-19T14:47:20.479Z,61.37
2023-05-19T14:49:47.479Z,61.59
2023-05-19T14:52:14.356Z,61.28
2023-05-19T14:54:41.273Z,61.93
2023-05-19T14:57:08.305Z,61.76
2023-05-19T14:59:38.826Z,62.27
2023-05-19T15:02:06.235Z,62.28
2023-05-19T15:04:33.125Z,62.17
2023-05-19T15:09:29.843Z,61.92
2023-05-19T15:11:56.772Z,61.79
2023-05-19T15:14:24.418Z,62.02
2023-05-19T15:16:52.016Z,61.72
2023-05-19T15:19:18.913Z,62.48
2023-05-19T15:21:46.006Z,62.76
2023-05-19T15:24:12.859Z,63.31
2023-05-19T15:26:39.816Z,63.76
2023-05-19T15:29:06.713Z,63.62
2023-05-19T15:31:35.769Z,63.67
2023-05-19T15:34:04.277Z,64.19
2023-05-19T15:36:31.712Z,63.94
2023-05-19T15:38:58.609Z,64.02
2023-05-19T15:41:25.956Z,63.94
2023-05-19T15:43:53.770Z,64.02
2023-05-19T15:46:20.761Z,64.55
2023-05-19T15:48:47.737Z,64.21
2023-05-19T15:51:14.798Z,64.37
2023-05-19T15:53:41.661Z,63.65
2023-05-19T15:56:08.578Z,64.11
2023-05-19T15:58:35.451Z,63.87
2023-05-19T16:01:03.372Z,63.41
2023-05-19T16:03:30.496Z,62.92
2023-05-19T16:05:57.942Z,63.01
2023-05-19T16:08:25.353Z,64.33
2023-05-19T16:10:52.271Z,64.61
2023-05-19T16:13:19.133Z,64.08
2023-05-19T16:15:45.995Z,64.34
2023-05-19T16:18:13.187Z,64.83
2023-05-19T16:20:40.145Z,65.50
2023-05-19T16:23:07.070Z,64.90
2023-05-19T16:25:34.059Z,65.53
2023-05-19T16:28:00.938Z,65.68
2023-05-19T16:30:28.279Z,65.54
2023-05-19T16:32:55.162Z,65.67
2023-05-19T16:35:22.276Z,65.83
2023-05-19T16:37:49.431Z,65.84
2023-05-19T16:40:16.398Z,66.12
2023-05-19T16:42:43.278Z,65.72
2023-05-19T16:45:10.646Z,65.90
2023-05-19T16:47:37.729Z,66.04
2023-05-19T16:50:04.985Z,65.85
2023-05-19T16:52:31.906Z,65.85
2023-05-19T16:54:58.794Z,66.65
2023-05-19T16:57:25.722Z,66.86
2023-05-19T16:59:52.552Z,66.52
2023-05-19T17:02:19.510Z,67.02
2023-05-19T17:04:46.455Z,68.08
2023-05-19T17:07:17.035Z,68.63
2023-05-19T17:09:44.877Z,68.15
2023-05-19T17:12:11.749Z,68.37
2023-05-19T17:14:38.691Z,67.93
2023-05-19T17:17:05.646Z,68.34
2023-05-19T17:19:32.735Z,68.63
2023-05-19T17:21:59.743Z,68.25
2023-05-19T17:24:28.937Z,68.20
2023-05-19T17:26:56.041Z,68.50
2023-05-19T17:29:23.134Z,68.37
2023-05-19T17:31:50.062Z,67.49
2023-05-19T17:34:16.923Z,68.30
2023-05-19T17:36:43.780Z,67.88
2023-05-19T17:39:10.861Z,67.09
2023-05-19T17:41:37.725Z,67.82
2023-05-19T17:44:06.873Z,68.29
2023-05-19T17:46:34.958Z,68.58
2023-05-19T17:49:02.204Z,68.09
2023-05-19T17:51:29.546Z,68.80
2023-05-19T17:53:56.847Z,68.01
2023-05-19T17:56:25.214Z,68.36
2023-05-19T17:58:52.534Z,68.67
2023-05-19T18:01:23.955Z,68.36
2023-05-19T18:03:51.154Z,68.80
2023-05-19T18:06:19.422Z,69.21
2023-05-19T18:08:50.655Z,69.61
2023-05-19T18:11:18.873Z,69.27
2023-05-19T18:13:45.871Z,69.23
2023-05-19T18:16:15.350Z,69.58
2023-05-19T18:18:43.776Z,69.97
2023-05-19T18:21:17.915Z,69.95
2023-05-19T18:23:46.098Z,70.29
2023-05-19T18:26:13.693Z,70.26
2023-05-19T18:28:41.668Z,70.54
2023-05-19T18:31:17.583Z,70.38
2023-05-19T18:33:45.322Z,70.65
2023-05-19T18:36:12.525Z,71.22
2023-05-19T18:38:41.448Z,72.29
2023-05-19T18:41:09.452Z,72.82
2023-05-19T18:43:36.356Z,73.36
2023-05-19T18:46:03.292Z,73.02
2023-05-19T18:48:30.384Z,73.43
2023-05-19T18:50:57.472Z,73.46
2023-05-19T18:53:24.583Z,73.29
2023-05-19T18:55:51.466Z,74.61
2023-05-19T18:58:19.251Z,74.62
2023-05-19T19:00:46.155Z,74.57
2023-05-19T19:03:13.175Z,75.34
2023-05-19T19:05:40.321Z,75.45
2023-05-19T19:08:07.259Z,75.71
2023-05-19T19:10:37.464Z,76.06
2023-05-19T19:13:04.422Z,76.25
2023-05-19T19:15:31.846Z,76.38
2023-05-19T19:17:58.727Z,75.94
2023-05-19T19:20:25.735Z,75.62
2023-05-19T19:22:53.656Z,75.92
2023-05-19T19:25:23.129Z,78.13
2023-05-19T19:27:50.738Z,79.13
2023-05-19T19:30:17.813Z,80.00
2023-05-19T19:32:44.795Z,78.53
2023-05-19T19:35:11.889Z,77.43
2023-05-19T19:37:38.757Z,76.67
2023-05-19T19:40:06.906Z,76.51
2023-05-19T19:42:34.302Z,77.06
2023-05-19T19:45:01.219Z,77.17
2023-05-19T19:47:28.130Z,77.08
2023-05-19T19:49:56.104Z,77.35
2023-05-19T19:52:22.992Z,77.52
2023-05-19T19:54:49.857Z,78.17
2023-05-19T19:57:19.501Z,78.15
2023-05-19T19:59:46.360Z,78.31
2023-05-19T20:02:14.170Z,79.00
2023-05-19T20:04:41.194Z,80.00
2023-05-19T20:07:08.098Z,80.80
2023-05-19T20:09:34.936Z,80.25
2023-05-19T20:12:01.874Z,81.05
2023-05-19T20:14:28.742Z,80.99
2023-05-19T20:16:55.833Z,80.94
2023-05-19T20:19:25.273Z,81.00
2023-05-19T20:21:52.154Z,80.72
2023-05-19T20:24:19.041Z,81.02
2023-05-19T20:26:45.945Z,80.99
2023-05-19T20:29:12.825Z,80.92
2023-05-19T20:31:39.730Z,80.67
2023-05-19T20:34:06.682Z,81.26
2023-05-19T20:36:33.546Z,80.67
2023-05-19T20:39:00.404Z,81.42
2023-05-19T20:41:27.571Z,81.60
2023-05-19T20:43:55.231Z,82.37
2023-05-19T20:46:22.196Z,82.17
2023-05-19T20:48:49.122Z,82.04
2023-05-19T20:51:15.962Z,82.43
2023-05-19T20:53:42.798Z,82.24
2023-05-19T20:56:10.832Z,81.97
2023-05-19T20:58:38.128Z,81.82
2023-05-19T21:01:20.789Z,81.38
2023-05-19T21:03:47.679Z,81.10
2023-05-19T21:06:14.527Z,80.86
2023-05-19T21:08:41.481Z,81.27
2023-05-19T21:11:08.313Z,82.35
2023-05-19T21:13:39.249Z,83.01
2023-05-19T21:16:06.442Z,82.64
2023-05-19T21:18:35.073Z,82.26
2023-05-19T21:21:04.149Z,81.92
2023-05-19T21:23:31.226Z,82.47
2023-05-19T21:25:59.784Z,81.88
2023-05-19T21:28:26.701Z,82.27
2023-05-19T21:30:53.831Z,82.72
2023-05-19T21:33:20.859Z,82.46
2023-05-19T21:35:47.803Z,83.23
2023-05-19T21:38:23.262Z,82.98
2023-05-19T21:40:50.682Z,83.47
2023-05-19T21:43:17.539Z,82.79
2023-05-19T21:45:44.406Z,83.03
2023-05-19T21:48:11.653Z,82.48
2023-05-19T21:50:39.099Z,83.34
2023-05-19T21:53:06.085Z,83.14
2023-05-19T21:55:33.112Z,84.82
2023-05-19T21:58:01.673Z,83.80
2023-05-19T22:00:29.636Z,82.99
2023-05-19T22:02:57.103Z,84.42
2023-05-19T22:05:24.063Z,83.65
2023-05-19T22:07:50.985Z,84.67
2023-05-19T22:10:17.867Z,84.06
2023-05-19T22:12:44.733Z,84.15
2023-05-19T22:15:13.536Z,85.12
2023-05-19T22:17:40.777Z,84.47
2023-05-19T22:20:08.625Z,84.84
2023-05-19T22:22:35.831Z,84.06
2023-05-19T22:25:03.873Z,83.49
2023-05-19T22:27:30.913Z,83.61
2023-05-19T22:29:59.885Z,83.62
2023-05-19T22:32:26.924Z,83.58
2023-05-19T22:34:53.988Z,84.09
2023-05-19T22:37:23.192Z,85.54
2023-05-19T22:39:50.084Z,85.77
2023-05-19T22:42:16.951Z,84.70
2023-05-19T22:44:43.844Z,84.50
2023-05-19T22:47:13.754Z,85.33
2023-05-19T22:49:42.601Z,85.05
2023-05-19T22:52:11.233Z,85.34
2023-05-19T22:54:38.317Z,84.89
2023-05-19T22:57:05.690Z,85.01
2023-05-19T22:59:32.569Z,84.70
2023-05-19T23:01:59.438Z,85.30
2023-05-19T23:04:26.582Z,86.32
2023-05-19T23:06:53.498Z,86.83
2023-05-19T23:09:20.393Z,85.75
2023-05-19T23:11:47.389Z,86.95
2023-05-19T23:14:14.311Z,87.56
2023-05-19T23:16:41.194Z,86.66
2023-05-19T23:19:08.154Z,86.56
2023-05-19T23:21:35.030Z,86.39
2023-05-19T23:24:02.035Z,86.13
2023-05-19T23:26:28.936Z,86.76
2023-05-19T23:28:55.787Z,87.98
2023-05-19T23:31:22.752Z,87.82
2023-05-19T23:33:49.753Z,88.11
2023-05-19T23:36:17.874Z,88.04
2023-05-19T23:38:44.759Z,88.01
2023-05-19T23:41:11.700Z,87.15
2023-05-19T23:43:39.492Z,86.40
2023-05-19T23:46:06.509Z,87.11
2023-05-19T23:48:33.869Z,87.24
2023-05-19T23:51:00.933Z,88.12
2023-05-19T23:53:27.815Z,89.10
2023-05-19T23:55:55.643Z,89.07
2023-05-19T23:58:23.666Z,87.86
